Portada
METAR-TAF:

METAR-TAF

Aeroports :

Mendoza, Argentina

latitud: 32-50S, longitud: 068-47W, altitud: 705 m

Observació

L'informe es va fer fa 42 minuts, a les 07:00 UTC
Vent calma
Temperatura 10°C
Humitat 57%
Pressió 1015 hPa
Visibilitat 10 km o més
sense núvols per sota de 1500 mi sense presència de cumulonimbus.

METAR: SAME 240700Z 00000KT CAVOK 10/02 Q1015

Hora: 04:42 (07:42 UTC)

Pronòstic

L'informe es va fer fa 2 hores i 42 minuts, a les 05:00 UTC
Pronòstic vàlid del 24 a les 06 UTC al 25 a les 06 UTC
Vent 5 kt del Sud-Est
Visibilitat 10 km o més
sense núvols per sota de 1500 mi sense presència de cumulonimbus.
Temporalment
l' 24 a les 12 UTC al 24 a les 14 UTC
Vent kt del Nord
Visibilitat: 5000 m

TAF: SAME 240500Z 2406/2506 14005KT CAVOK TX23/2420Z TN04/2410Z TEMPO 2412/2414 00000KT 5000 FUHZ NSC

Observacions i pronòstics meteorològics de més de 4000 aeroports (METAR i TAF).

Les estacions disponibles són els punts grocs i vermells al mapa.

Posi el ratolí al punt desitjat per veure el nom de l'estació.

Feu clic per veure les observacions i els pronòstics meteorològics.

Per canviar el mapa: feu clic els botons verds amb una creu de color negre per apropar; al botó verd amb un guió per allunyar la imatge; o en les fletxes verdes per a mapes adjacents.


METAR-TAF: